Time;durP1;ratioP1;P1;durP2;ratioP2;P2;SDS_P1;SDS_P2;PMS_P1;PMS_P2;Temp;Humidity;BMP_temperature;BMP_pressure;BME280_temperature;BME280_humidity;BME280_pressure;Samples;Min_cycle;Max_cycle;Signal;HPM_P1;HPM_P2
2021/07/20 00:02:09;;;;;;;21.08;9.07;;;;;;;13.14;72.82;100873.38;10385525;28;20199;-72
2021/07/20 00:07:13;;;;;;;17.88;8.50;;;;;;;13.36;72.08;100884.06;10385570;28;20213;-72
2021/07/20 00:12:17;;;;;;;15.73;8.05;;;;;;;13.26;72.55;100878.56;10385514;28;20182;-72
2021/07/20 00:17:22;;;;;;;22.95;9.68;;;;;;;13.47;72.06;100881.31;10385368;28;20205;-72
2021/07/20 00:22:26;;;;;;;14.48;8.60;;;;;;;13.73;71.28;100872.81;10383740;28;20217;-72
2021/07/20 00:27:29;;;;;;;16.63;8.98;;;;;;;13.88;70.78;100871.50;10385380;28;20305;-73
2021/07/20 00:32:32;;;;;;;16.88;8.20;;;;;;;13.91;70.71;100865.81;10386911;28;20308;-73
2021/07/20 00:37:37;;;;;;;16.88;8.63;;;;;;;13.98;70.26;100866.13;10391570;28;20195;-73
2021/07/20 00:42:41;;;;;;;15.27;9.05;;;;;;;14.00;70.08;100857.91;10374376;28;20218;-73
2021/07/20 00:47:44;;;;;;;14.77;8.32;;;;;;;13.97;70.01;100855.47;10373409;28;20306;-73
2021/07/20 00:52:50;;;;;;;16.42;8.13;;;;;;;14.08;70.07;100863.47;10374044;28;20218;-72
2021/07/20 00:57:53;;;;;;;15.38;8.15;;;;;;;14.16;69.87;100861.81;10373333;28;20195;-73
2021/07/20 01:03:00;;;;;;;14.60;7.70;;;;;;;13.74;70.35;100862.88;10390023;28;20265;-73
2021/07/20 01:08:06;;;;;;;15.32;8.20;;;;;;;13.45;71.93;100868.94;10389681;28;20226;-73
2021/07/20 01:13:13;;;;;;;15.32;8.48;;;;;;;13.56;71.79;100865.31;10373067;28;20750;-72
2021/07/20 01:18:23;;;;;;;17.17;8.63;;;;;;;13.62;70.98;100859.41;10389149;28;20289;-72
2021/07/20 01:23:34;;;;;;;12.77;7.63;;;;;;;13.57;71.08;100856.22;10372434;28;20654;-73
2021/07/20 01:28:39;;;;;;;14.98;8.60;;;;;;;13.55;71.39;100858.19;10388641;28;20242;-73
2021/07/20 01:33:49;;;;;;;14.35;8.50;;;;;;;13.51;72.05;100871.13;10388721;28;20283;-72
2021/07/20 01:38:59;;;;;;;13.35;8.25;;;;;;;13.66;71.63;100856.31;10389757;28;20190;-72
2021/07/20 01:44:09;;;;;;;18.45;8.80;;;;;;;13.71;71.48;100866.69;10388015;28;20315;-73
2021/07/20 01:49:18;;;;;;;15.00;7.57;;;;;;;13.87;70.94;100863.50;10388932;28;20248;-72
2021/07/20 01:54:30;;;;;;;14.55;8.48;;;;;;;13.80;70.69;100865.91;10371510;28;20226;-73
2021/07/20 01:59:34;;;;;;;13.02;7.57;;;;;;;13.62;71.94;100856.69;10388384;28;20199;-73
2021/07/20 02:08:22;;;;;;;16.00;8.05;;;;;;;13.53;71.81;100855.66;10387511;28;20244;-73
2021/07/20 02:10:17;;;;;;;15.68;8.23;;;;;;;13.62;71.36;100862.09;10371355;28;20286;-72
2021/07/20 02:15:41;;;;;;;12.40;8.07;;;;;;;13.58;71.44;100855.25;10387905;28;20268;-73
2021/07/20 02:21:06;;;;;;;13.68;7.97;;;;;;;13.39;72.00;100862.25;10389720;28;20277;-73
2021/07/20 02:26:15;;;;;;;10.70;7.28;;;;;;;13.42;72.27;100864.66;10370635;28;20249;-73
2021/07/20 02:31:20;;;;;;;14.85;8.23;;;;;;;13.50;71.77;100864.00;10388994;28;20219;-73
2021/07/20 02:36:25;;;;;;;13.10;7.22;;;;;;;13.48;71.44;100863.28;10370186;28;20322;-72
2021/07/20 02:41:30;;;;;;;11.65;6.82;;;;;;;13.42;71.29;100863.81;10388194;28;20274;-73
2021/07/20 02:46:34;;;;;;;12.60;7.15;;;;;;;13.44;71.39;100862.69;10386042;28;20590;-73
2021/07/20 02:51:39;;;;;;;14.57;7.38;;;;;;;13.38;71.22;100863.19;10369700;28;20226;-73
2021/07/20 02:56:44;;;;;;;14.32;8.10;;;;;;;13.31;72.09;100862.00;10385219;28;20225;-72
2021/07/20 03:01:48;;;;;;;15.85;8.07;;;;;;;13.30;71.80;100867.50;10369499;28;20207;-72
2021/07/20 03:06:55;;;;;;;15.60;8.27;;;;;;;13.31;71.92;100867.41;10390188;28;20260;-73
2021/07/20 03:12:03;;;;;;;12.27;7.10;;;;;;;13.14;72.61;100871.53;10386797;28;20206;-72
2021/07/20 03:17:10;;;;;;;14.90;8.15;;;;;;;13.17;72.86;100865.88;10368941;28;20206;-73
2021/07/20 03:22:16;;;;;;;15.98;7.75;;;;;;;13.29;72.52;100877.47;10385492;28;20203;-73
2021/07/20 03:27:31;;;;;;;12.52;7.20;;;;;;;13.25;73.16;100868.78;10384858;28;20230;-73
2021/07/20 03:32:43;;;;;;;14.25;7.90;;;;;;;13.39;72.84;100867.63;10386689;28;20206;-73
2021/07/20 03:37:49;;;;;;;16.58;8.05;;;;;;;13.41;72.45;100883.66;10385812;28;20187;-73
2021/07/20 03:42:56;;;;;;;14.82;8.38;;;;;;;13.51;72.09;100878.38;10384887;28;20254;-73
2021/07/20 03:48:01;;;;;;;16.02;7.75;;;;;;;13.61;71.38;100877.44;10384179;28;20608;-73
2021/07/20 03:53:19;;;;;;;13.98;7.97;;;;;;;13.74;71.07;100873.66;10384418;28;20738;-73
2021/07/20 03:58:26;;;;;;;13.65;8.88;;;;;;;13.86;71.22;100875.31;10383867;28;20197;-72
2021/07/20 04:03:34;;;;;;;16.95;7.53;;;;;;;13.90;70.74;100883.03;10385854;28;20683;-72
2021/07/20 04:08:40;;;;;;;18.08;7.43;;;;;;;13.56;71.70;100895.88;10389560;28;20329;-73
2021/07/20 04:13:45;;;;;;;15.35;7.57;;;;;;;13.47;71.96;100889.41;10391595;28;20230;-73
2021/07/20 04:19:14;;;;;;;14.07;7.60;;;;;;;13.63;71.43;100894.38;10386455;28;20284;-73
2021/07/20 04:24:34;;;;;;;15.50;7.40;;;;;;;13.81;71.15;100889.22;10390928;28;20265;-73
2021/07/20 04:29:42;;;;;;;12.85;7.20;;;;;;;14.01;70.96;100892.84;10391406;28;20276;-73
2021/07/20 04:34:46;;;;;;;13.98;7.18;;;;;;;14.02;69.66;100896.44;10376293;28;20232;-73
2021/07/20 04:39:59;;;;;;;12.63;6.80;;;;;;;13.82;70.77;100896.34;10394429;28;20198;-74
2021/07/20 04:45:11;;;;;;;13.63;7.43;;;;;;;13.72;71.53;100900.81;10393341;28;20213;-73
2021/07/20 04:50:27;;;;;;;15.15;7.65;;;;;;;13.76;71.83;100893.28;10392469;28;20222;-74
2021/07/20 04:55:34;;;;;;;11.63;6.80;;;;;;;14.12;69.64;100894.63;10393926;28;20214;-74
2021/07/20 05:00:39;;;;;;;14.82;6.35;;;;;;;13.84;70.56;100897.03;10392060;28;20210;-73
2021/07/20 05:05:44;;;;;;;12.65;6.88;;;;;;;14.03;69.71;100899.00;10391356;28;20218;-74
2021/07/20 05:10:51;;;;;;;15.60;6.82;;;;;;;14.01;69.57;100902.81;10392904;28;20552;-73
2021/07/20 05:16:05;;;;;;;12.32;6.80;;;;;;;14.46;69.26;100897.09;10392393;28;20238;-73
2021/07/20 05:21:21;;;;;;;11.77;6.75;;;;;;;14.53;68.60;100909.03;10392101;28;20193;-73
2021/07/20 05:26:26;;;;;;;14.02;6.85;;;;;;;14.50;68.48;100901.22;10391922;28;20218;-73
2021/07/20 05:31:32;;;;;;;11.35;7.18;;;;;;;14.54;67.85;100903.50;10392435;28;20225;-73
2021/07/20 05:36:36;;;;;;;9.70;6.70;;;;;;;14.76;67.37;100901.56;10374390;28;20719;-73
2021/07/20 05:41:40;;;;;;;12.98;6.68;;;;;;;15.01;66.64;100911.84;10390754;28;20203;-73
2021/07/20 05:46:46;;;;;;;15.88;7.60;;;;;;;14.91;66.44;100910.97;10390599;28;20249;-73
2021/07/20 05:51:50;;;;;;;14.57;7.25;;;;;;;15.06;65.80;100916.88;10391687;28;20226;-73
2021/07/20 05:56:53;;;;;;;12.82;6.82;;;;;;;15.42;64.45;100912.63;10392063;28;20706;-73
2021/07/20 06:02:18;;;;;;;11.73;6.82;;;;;;;15.71;64.41;100919.84;10390403;28;20206;-71
2021/07/20 06:07:23;;;;;;;11.57;6.72;;;;;;;15.69;63.02;100920.00;10389783;28;20229;-72
2021/07/20 06:12:27;;;;;;;11.88;6.72;;;;;;;15.52;63.14;100920.72;10391254;28;20210;-72
2021/07/20 06:17:31;;;;;;;12.93;7.72;;;;;;;16.12;62.48;100921.31;10390765;28;20198;-72
2021/07/20 06:22:42;;;;;;;13.15;6.72;;;;;;;16.58;59.73;100927.72;10390524;28;20588;-71
2021/07/20 06:27:47;;;;;;;12.95;6.22;;;;;;;15.94;60.37;100925.81;10378888;23;20277;-74
2021/07/20 06:32:53;;;;;;;13.52;6.75;;;;;;;16.69;59.76;100928.53;10347214;28;20206;-75
2021/07/20 06:37:56;;;;;;;13.57;6.88;;;;;;;17.04;57.84;100944.88;10392217;28;20298;-75
2021/07/20 06:42:59;;;;;;;13.13;6.13;;;;;;;17.21;57.19;100940.50;10391662;28;20606;-75
2021/07/20 06:48:04;;;;;;;11.73;5.93;;;;;;;17.39;56.66;100936.97;10391236;28;20207;-75
2021/07/20 06:53:13;;;;;;;8.32;5.45;;;;;;;17.62;55.16;100931.88;10392397;28;20222;-75
2021/07/20 06:58:18;;;;;;;11.32;5.97;;;;;;;17.93;54.59;100943.16;10392263;28;20201;-75
2021/07/20 07:03:26;;;;;;;10.50;5.57;;;;;;;18.22;53.11;100944.75;10393322;28;20221;-75
2021/07/20 07:08:30;;;;;;;9.40;5.20;;;;;;;18.49;51.43;100952.72;10391421;28;20222;-75
2021/07/20 07:13:35;;;;;;;7.90;4.63;;;;;;;18.72;50.55;100952.97;10390408;28;20232;-75
2021/07/20 07:18:40;;;;;;;13.65;5.95;;;;;;;18.94;49.82;100953.44;10397046;28;20244;-75
2021/07/20 07:23:45;;;;;;;7.68;4.55;;;;;;;19.24;46.78;100952.81;10389487;28;20332;-75
2021/07/20 07:28:52;;;;;;;8.48;4.57;;;;;;;19.17;47.84;100954.53;10388956;28;20218;-75
2021/07/20 07:33:57;;;;;;;8.10;5.18;;;;;;;19.23;47.55;100955.72;10406317;28;20253;-75
2021/07/20 07:39:02;;;;;;;7.57;4.32;;;;;;;19.59;46.57;100950.00;10390916;28;20186;-75
2021/07/20 07:44:06;;;;;;;6.78;3.70;;;;;;;19.45;46.52;100962.41;10388806;28;20223;-75
2021/07/20 07:49:12;;;;;;;6.05;3.97;;;;;;;19.21;47.14;100953.16;10389214;28;20210;-75
2021/07/20 07:54:16;;;;;;;7.45;4.40;;;;;;;18.68;47.64;100967.09;10389030;28;20298;-76
2021/07/20 07:59:23;;;;;;;7.80;4.28;;;;;;;18.79;49.46;100956.78;10391001;28;20194;-76
2021/07/20 08:04:29;;;;;;;5.68;3.22;;;;;;;19.08;46.59;100958.22;10388543;28;20260;-75
2021/07/20 08:09:33;;;;;;;6.45;3.67;;;;;;;18.90;46.50;100966.53;10389883;28;20206;-75
2021/07/20 08:14:37;;;;;;;7.22;4.07;;;;;;;18.94;46.30;100964.31;10389700;28;20214;-75
2021/07/20 08:19:45;;;;;;;5.05;3.13;;;;;;;18.83;45.00;100970.06;10390545;28;20191;-75
2021/07/20 08:24:54;;;;;;;4.45;2.90;;;;;;;18.96;46.18;100967.75;10388358;28;20690;-75
2021/07/20 08:29:59;;;;;;;4.25;3.08;;;;;;;19.17;45.67;100965.41;10387297;28;20206;-74
2021/07/20 08:35:08;;;;;;;3.83;2.95;;;;;;;19.35;44.12;100965.28;10385761;28;20215;-74
2021/07/20 08:40:40;;;;;;;4.18;2.70;;;;;;;19.35;43.56;100972.59;10386200;28;20305;-73
2021/07/20 08:46:08;;;;;;;3.78;2.80;;;;;;;19.51;43.59;100963.59;10386204;28;20215;-75
2021/07/20 08:51:14;;;;;;;6.97;3.28;;;;;;;19.85;43.28;100969.75;10386200;28;20620;-74
2021/07/20 08:56:20;;;;;;;9.55;3.95;;;;;;;19.99;43.40;100975.53;10391854;28;20290;-75
2021/07/20 09:01:27;;;;;;;4.57;3.13;;;;;;;19.65;43.07;100977.41;10392991;28;20571;-75
2021/07/20 09:06:40;;;;;;;17.33;4.35;;;;;;;19.92;43.54;100971.81;10393287;28;20215;-75
2021/07/20 09:11:46;;;;;;;4.05;2.90;;;;;;;20.19;41.67;100976.03;10392612;28;20211;-75
2021/07/20 09:16:51;;;;;;;4.78;2.30;;;;;;;20.33;41.58;100972.63;10390554;28;20444;-75
2021/07/20 09:21:59;;;;;;;4.88;2.50;;;;;;;20.78;39.65;100982.03;10392174;28;20342;-75
2021/07/20 09:27:11;;;;;;;5.32;3.30;;;;;;;20.81;39.67;100984.38;10391348;28;20214;-75
2021/07/20 09:32:44;;;;;;;4.45;2.83;;;;;;;21.32;40.08;100989.47;10391425;28;20253;-76
2021/07/20 09:37:58;;;;;;;4.40;2.80;;;;;;;21.45;40.70;100995.19;10391037;28;20218;-76
2021/07/20 09:43:06;;;;;;;5.05;3.00;;;;;;;21.44;40.72;100999.78;10392210;28;20186;-76
2021/07/20 09:48:22;;;;;;;7.47;3.45;;;;;;;21.33;41.40;100994.72;10391791;28;20570;-75
2021/07/20 09:53:51;;;;;;;4.18;3.13;;;;;;;21.11;41.81;100998.28;10391470;28;20214;-75
2021/07/20 09:59:04;;;;;;;3.97;3.38;;;;;;;21.04;42.12;101002.78;10392601;28;20180;-75
2021/07/20 10:04:14;;;;;;;5.90;3.45;;;;;;;20.58;41.35;100994.38;10390751;28;20221;-75
2021/07/20 10:09:27;;;;;;;5.47;3.05;;;;;;;20.45;42.68;100993.03;10390646;28;20195;-75
2021/07/20 10:14:41;;;;;;;7.65;3.60;;;;;;;21.03;41.72;100996.41;10389860;28;20218;-75
2021/07/20 10:19:48;;;;;;;5.43;3.50;;;;;;;20.33;42.22;100999.91;10390281;28;20183;-75
2021/07/20 10:24:58;;;;;;;5.70;2.88;;;;;;;21.03;41.93;100999.13;10389411;28;20222;-75
2021/07/20 10:30:06;;;;;;;3.53;2.88;;;;;;;21.17;41.76;100994.81;10390263;28;20675;-74
2021/07/20 10:35:18;;;;;;;5.10;3.55;;;;;;;20.65;43.60;100995.38;10410403;28;20687;-74
2021/07/20 10:40:25;;;;;;;8.13;3.33;;;;;;;20.30;44.67;100995.63;10389954;28;20195;-75
2021/07/20 10:45:33;;;;;;;7.50;3.72;;;;;;;20.25;44.71;100994.44;10389043;28;20294;-74
2021/07/20 10:50:45;;;;;;;4.78;3.08;;;;;;;20.08;45.14;100989.00;10389123;28;20225;-75
2021/07/20 10:56:05;;;;;;;4.18;3.08;;;;;;;20.52;43.70;100990.47;10388424;28;20217;-75
2021/07/20 11:01:11;;;;;;;5.15;3.22;;;;;;;21.10;42.80;100993.84;10388864;28;20193;-75
2021/07/20 11:06:15;;;;;;;6.20;3.53;;;;;;;21.08;41.80;100990.44;10388030;28;20233;-75
2021/07/20 11:11:25;;;;;;;5.97;2.80;;;;;;;20.36;41.67;100985.91;10388279;28;20272;-75
2021/07/20 11:16:32;;;;;;;4.97;3.40;;;;;;;20.98;42.47;100990.63;10387598;28;20298;-75
2021/07/20 11:21:35;;;;;;;5.90;2.95;;;;;;;20.58;40.82;100986.19;10387894;28;20203;-74
2021/07/20 11:26:40;;;;;;;3.97;3.15;;;;;;;20.84;42.26;100986.75;10387198;28;20305;-75
2021/07/20 11:31:47;;;;;;;6.55;3.85;;;;;;;20.75;41.55;100985.09;10387518;28;20675;-74
2021/07/20 11:36:54;;;;;;;5.50;3.60;;;;;;;21.07;42.75;100988.75;10387020;28;20214;-75
2021/07/20 11:42:05;;;;;;;4.35;3.20;;;;;;;21.20;42.39;100983.53;10387758;28;20189;-75
2021/07/20 11:47:13;;;;;;;5.55;3.10;;;;;;;21.15;41.80;100981.38;10386483;28;20210;-76
2021/07/20 11:52:25;;;;;;;4.80;3.00;;;;;;;20.99;41.79;100989.63;10386917;28;20203;-75
2021/07/20 11:58:03;;;;;;;8.98;3.63;;;;;;;21.25;41.96;100980.28;10387015;28;20214;-75
2021/07/20 12:03:32;;;;;;;5.40;3.35;;;;;;;22.06;40.38;100978.81;10371041;28;20210;-75
2021/07/20 12:08:48;;;;;;;5.63;3.63;;;;;;;22.76;37.82;100978.44;10387173;28;20201;-75
2021/07/20 12:13:51;;;;;;;5.68;3.40;;;;;;;22.31;36.53;100983.00;10385860;28;20320;-75
2021/07/20 12:18:56;;;;;;;5.10;3.40;;;;;;;23.15;37.70;100969.03;10387825;28;20190;-75
2021/07/20 12:24:05;;;;;;;7.72;3.38;;;;;;;23.32;38.57;100964.16;10386882;28;20219;-75
2021/07/20 12:29:11;;;;;;;5.28;3.40;;;;;;;22.62;39.41;100968.31;10390594;28;20198;-74
2021/07/20 12:34:17;;;;;;;5.10;3.58;;;;;;;22.05;40.21;100979.84;10393978;28;20218;-75
2021/07/20 12:39:23;;;;;;;4.43;3.28;;;;;;;22.86;37.89;100972.63;10394168;28;20585;-74
2021/07/20 12:44:31;;;;;;;5.95;3.88;;;;;;;23.27;37.71;100954.81;10393397;28;20695;-75
2021/07/20 12:49:37;;;;;;;8.30;3.72;;;;;;;25.39;34.70;100961.72;10393813;28;20666;-74
2021/07/20 12:54:41;;;;;;;5.70;3.40;;;;;;;26.68;32.94;100957.66;10393947;28;20230;-74
2021/07/20 12:59:45;;;;;;;5.13;3.42;;;;;;;28.06;29.60;100956.25;10393398;28;20678;-74
2021/07/20 13:04:50;;;;;;;5.00;3.05;;;;;;;27.86;30.72;100953.63;10392899;28;20206;-75
2021/07/20 13:09:54;;;;;;;4.53;3.20;;;;;;;28.39;29.64;100947.63;10393192;28;20209;-74
2021/07/20 13:15:10;;;;;;;5.38;3.63;;;;;;;27.11;31.00;100954.34;10392572;28;20218;-74
2021/07/20 13:20:15;;;;;;;6.20;3.50;;;;;;;26.72;29.95;100945.16;10392742;28;20190;-74
2021/07/20 13:25:18;;;;;;;5.85;3.45;;;;;;;25.23;31.52;100944.78;10392117;28;20233;-75
2021/07/20 13:30:23;;;;;;;3.78;3.20;;;;;;;26.00;31.50;100940.63;10392674;28;20217;-74
2021/07/20 13:35:29;;;;;;;5.18;3.63;;;;;;;27.73;28.97;100943.56;10392008;28;20221;-75
2021/07/20 13:40:34;;;;;;;6.47;3.67;;;;;;;26.15;31.39;100933.00;10391017;28;20195;-75
2021/07/20 13:45:38;;;;;;;6.35;3.10;;;;;;;26.64;31.17;100931.63;10391873;28;20225;-75
2021/07/20 13:50:43;;;;;;;7.05;3.42;;;;;;;26.03;30.88;100929.22;10392139;28;20245;-74
2021/07/20 13:55:50;;;;;;;7.50;3.72;;;;;;;26.42;32.13;100931.06;10391723;28;20603;-74
2021/07/20 14:00:53;;;;;;;6.00;3.72;;;;;;;27.30;29.36;100924.09;10391960;28;20190;-74
2021/07/20 14:06:00;;;;;;;4.43;3.45;;;;;;;26.23;31.76;100923.66;10390847;28;20206;-74
2021/07/20 14:11:03;;;;;;;4.97;2.92;;;;;;;25.99;32.15;100936.19;10391011;28;20210;-76
2021/07/20 14:16:09;;;;;;;6.30;3.50;;;;;;;24.02;33.81;100918.59;10389183;28;20218;-75
2021/07/20 14:21:23;;;;;;;8.52;4.28;;;;;;;23.78;36.74;100924.50;10389509;28;20671;-75
2021/07/20 14:26:27;;;;;;;4.90;4.07;;;;;;;24.24;35.14;100919.34;10389433;28;20222;-75
2021/07/20 14:31:32;;;;;;;4.57;3.78;;;;;;;24.41;34.63;100925.44;10389652;28;20717;-76
2021/07/20 14:36:38;;;;;;;4.95;3.40;;;;;;;24.49;34.98;100925.25;10389185;28;20217;-76
2021/07/20 14:41:41;;;;;;;6.38;4.13;;;;;;;25.46;34.75;100925.16;10389501;28;20573;-76
2021/07/20 14:46:45;;;;;;;4.80;3.75;;;;;;;26.55;32.94;100912.78;10388704;28;20214;-76
2021/07/20 14:51:49;;;;;;;10.57;4.00;;;;;;;27.52;30.36;100897.03;10387948;28;20203;-75
2021/07/20 14:56:56;;;;;;;5.18;3.80;;;;;;;27.26;30.05;100889.75;10388345;28;20214;-75
2021/07/20 15:01:59;;;;;;;5.85;3.83;;;;;;;27.85;30.27;100905.03;10388990;28;20194;-75
2021/07/20 15:07:17;;;;;;;5.00;3.97;;;;;;;28.90;29.38;100893.00;10388286;28;20301;-74
2021/07/20 15:12:25;;;;;;;6.40;4.55;;;;;;;25.87;32.41;100889.22;10388350;28;20215;-74
2021/07/20 15:17:30;;;;;;;6.75;3.85;;;;;;;25.30;33.08;100897.00;10387749;28;20210;-75
2021/07/20 15:22:35;;;;;;;6.25;3.80;;;;;;;24.63;34.92;100895.97;10388063;28;20182;-75
2021/07/20 15:27:38;;;;;;;6.15;4.30;;;;;;;24.22;36.00;100893.19;10387276;28;20221;-75
2021/07/20 15:32:41;;;;;;;5.55;3.70;;;;;;;23.78;36.95;100886.13;10387495;28;20565;-75
2021/07/20 15:37:46;;;;;;;6.43;4.32;;;;;;;23.50;36.74;100883.34;10387107;28;20225;-76
2021/07/20 15:42:52;;;;;;;6.50;4.20;;;;;;;26.19;33.56;100878.34;10387526;28;20692;-75
2021/07/20 15:47:59;;;;;;;8.25;3.92;;;;;;;27.55;30.72;100883.63;10386749;28;20682;-74
2021/07/20 15:53:07;;;;;;;6.22;4.07;;;;;;;27.96;29.68;100882.22;10402432;28;20215;-75
2021/07/20 15:58:11;;;;;;;5.65;3.80;;;;;;;27.08;30.91;100880.34;10386879;28;20213;-75
2021/07/20 16:03:15;;;;;;;5.18;3.60;;;;;;;25.78;33.66;100885.84;10386939;28;20265;-75
2021/07/20 16:08:19;;;;;;;5.68;3.90;;;;;;;25.14;34.33;100889.16;10386852;28;20706;-75
2021/07/20 16:13:23;;;;;;;5.80;3.90;;;;;;;23.33;37.65;100880.88;10386516;28;22412;-74
2021/07/20 16:18:28;;;;;;;12.32;4.55;;;;;;;25.73;34.63;100877.38;10386032;28;20195;-74
2021/07/20 16:23:34;;;;;;;6.38;4.10;;;;;;;26.03;33.72;100879.69;10386096;28;20784;-74
2021/07/20 16:28:40;;;;;;;4.85;3.80;;;;;;;25.35;32.79;100875.22;10386339;28;20655;-74
2021/07/20 16:33:49;;;;;;;7.03;3.88;;;;;;;24.47;36.08;100877.94;10385949;28;20219;-76
2021/07/20 16:38:53;;;;;;;5.30;3.60;;;;;;;25.13;34.84;100874.56;10385832;28;20231;-75
2021/07/20 16:43:56;;;;;;;8.25;4.22;;;;;;;24.34;36.51;100872.34;10385669;28;20632;-74
2021/07/20 16:49:00;;;;;;;6.43;4.18;;;;;;;24.42;36.28;100871.34;10385785;28;20191;-76
2021/07/20 16:54:05;;;;;;;7.10;4.30;;;;;;;24.37;37.10;100871.94;10385215;28;20250;-75
2021/07/20 16:59:09;;;;;;;5.32;3.80;;;;;;;23.42;38.55;100876.97;10384339;28;20195;-75
2021/07/20 17:04:12;;;;;;;6.07;4.15;;;;;;;23.31;40.10;100871.16;10384901;28;20234;-74
2021/07/20 17:09:16;;;;;;;7.43;4.38;;;;;;;23.40;39.22;100870.81;10385387;28;20652;-75
2021/07/20 17:14:20;;;;;;;7.43;4.05;;;;;;;22.96;40.11;100876.47;10386985;28;20226;-75
2021/07/20 17:19:23;;;;;;;6.47;4.25;;;;;;;22.55;41.43;100869.69;10392561;28;20191;-74
2021/07/20 17:24:28;;;;;;;10.50;4.10;;;;;;;22.10;42.54;100873.44;10391262;28;20219;-75
2021/07/20 17:29:32;;;;;;;10.18;4.18;;;;;;;21.61;43.76;100879.38;10391541;28;20202;-74
2021/07/20 17:34:35;;;;;;;5.45;4.25;;;;;;;21.30;44.24;100894.00;10391137;28;20245;-74
2021/07/20 17:39:40;;;;;;;10.95;4.43;;;;;;;20.94;47.22;100886.38;10393271;28;20270;-75
2021/07/20 17:44:45;;;;;;;7.68;4.47;;;;;;;20.83;47.59;100889.50;10391477;28;20557;-75
2021/07/20 17:49:53;;;;;;;5.57;4.30;;;;;;;20.96;47.37;100892.50;10391045;28;20222;-74
2021/07/20 17:55:04;;;;;;;6.28;4.35;;;;;;;21.04;47.17;100893.53;10388868;28;20235;-74
2021/07/20 18:00:08;;;;;;;6.95;4.00;;;;;;;21.10;46.05;100898.25;10391655;28;20954;-74
2021/07/20 18:05:16;;;;;;;5.50;4.00;;;;;;;21.11;46.71;100900.78;10390143;28;20207;-74
2021/07/20 18:10:21;;;;;;;6.45;4.40;;;;;;;21.01;47.84;100892.81;10390299;28;20190;-74
2021/07/20 18:15:25;;;;;;;7.03;3.97;;;;;;;20.63;46.57;100899.19;10389922;28;20333;-75
2021/07/20 18:20:28;;;;;;;7.35;4.30;;;;;;;20.40;47.57;100899.09;10390355;28;20285;-74
2021/07/20 18:25:32;;;;;;;7.93;4.88;;;;;;;20.36;48.26;100903.22;10387276;28;20241;-75
2021/07/20 18:30:36;;;;;;;6.80;4.35;;;;;;;20.36;48.79;100900.50;10389285;28;20201;-75
2021/07/20 18:35:39;;;;;;;5.35;4.18;;;;;;;20.25;49.70;100901.69;10387720;28;20242;-75
2021/07/20 18:40:43;;;;;;;8.02;4.20;;;;;;;20.13;49.26;100899.34;10389043;28;20202;-74
2021/07/20 18:45:46;;;;;;;8.23;4.55;;;;;;;20.16;49.17;100910.91;10388444;28;20209;-74
2021/07/20 18:51:09;;;;;;;6.28;4.45;;;;;;;19.72;48.67;100914.94;10387652;28;20198;-74
2021/07/20 18:56:14;;;;;;;6.07;4.28;;;;;;;19.33;49.60;100921.00;10388175;28;20256;-75
2021/07/20 19:01:18;;;;;;;7.32;4.55;;;;;;;19.13;50.28;100927.78;10388797;28;20194;-75
2021/07/20 19:06:21;;;;;;;9.68;4.38;;;;;;;19.24;49.92;100935.63;10387929;28;20679;-75
2021/07/20 19:11:25;;;;;;;8.15;4.22;;;;;;;19.33;49.98;100931.88;10387137;28;20201;-75
2021/07/20 19:16:28;;;;;;;11.20;4.78;;;;;;;19.30;50.16;100948.56;10387702;28;20704;-75
2021/07/20 19:21:33;;;;;;;8.85;4.07;;;;;;;19.22;50.29;100943.13;10388141;28;20209;-75
2021/07/20 19:26:37;;;;;;;9.85;4.88;;;;;;;19.13;50.65;100955.03;10387378;28;20241;-75
2021/07/20 19:31:41;;;;;;;7.70;4.70;;;;;;;19.06;50.75;100963.00;10388600;28;20698;-74
2021/07/20 19:36:43;;;;;;;7.30;4.80;;;;;;;18.98;51.32;100963.84;10386790;28;20305;-74
2021/07/20 19:41:48;;;;;;;8.45;4.68;;;;;;;19.06;51.85;100968.47;10387618;28;20201;-75
2021/07/20 19:46:51;;;;;;;8.00;4.70;;;;;;;19.05;51.77;100969.47;10387033;28;20709;-76
2021/07/20 19:51:54;;;;;;;7.45;4.57;;;;;;;19.03;51.74;100979.66;10387273;28;20278;-75
2021/07/20 19:56:58;;;;;;;9.48;4.78;;;;;;;18.96;51.95;100976.75;10386579;28;20242;-76
2021/07/20 20:02:01;;;;;;;11.07;5.07;;;;;;;18.87;52.57;100987.75;10386996;28;20194;-76
2021/07/20 20:07:04;;;;;;;12.00;5.85;;;;;;;18.79;52.83;100984.00;10386639;28;20207;-75
2021/07/20 20:12:08;;;;;;;10.60;5.32;;;;;;;18.76;53.34;100983.47;10386976;28;20198;-75
2021/07/20 20:17:12;;;;;;;9.40;5.22;;;;;;;18.68;53.88;100986.16;10386284;28;20218;-75
2021/07/20 20:22:15;;;;;;;10.07;5.82;;;;;;;18.59;54.83;100982.50;10387074;28;20191;-75
2021/07/20 20:27:21;;;;;;;10.27;5.28;;;;;;;18.49;55.62;100984.53;10384873;28;20230;-75
2021/07/20 20:32:24;;;;;;;10.43;5.60;;;;;;;18.27;56.83;100999.50;10386572;28;20194;-76
2021/07/20 20:37:28;;;;;;;10.27;5.75;;;;;;;18.28;57.28;100996.63;10385526;28;20217;-76
2021/07/20 20:42:32;;;;;;;9.60;5.78;;;;;;;18.27;58.01;100996.78;10385710;28;20195;-75
2021/07/20 20:47:35;;;;;;;11.55;6.45;;;;;;;18.17;58.34;100999.59;10385321;28;20214;-74
2021/07/20 20:52:38;;;;;;;10.52;6.13;;;;;;;18.16;58.85;100997.06;10392264;28;20290;-76
2021/07/20 20:57:43;;;;;;;9.10;6.03;;;;;;;18.10;59.14;101003.97;10392055;28;20217;-76
2021/07/20 21:02:46;;;;;;;11.07;6.55;;;;;;;18.05;59.22;100999.03;10394080;28;20199;-74
2021/07/20 21:07:49;;;;;;;11.00;6.22;;;;;;;18.00;59.97;101006.78;10394004;28;20293;-75
2021/07/20 21:12:53;;;;;;;11.10;6.40;;;;;;;17.98;60.31;101008.81;10391869;28;20573;-75
2021/07/20 21:17:56;;;;;;;10.70;5.80;;;;;;;17.93;60.72;101011.09;10392566;28;20218;-75
2021/07/20 21:22:59;;;;;;;10.05;6.05;;;;;;;17.89;60.87;101012.44;10390288;28;20721;-75
2021/07/20 21:28:04;;;;;;;11.07;6.05;;;;;;;17.83;61.28;101011.22;10391005;28;20585;-75
2021/07/20 21:33:07;;;;;;;9.55;5.85;;;;;;;17.81;61.36;101012.38;10393024;28;20217;-75
2021/07/20 21:38:10;;;;;;;10.38;5.50;;;;;;;17.73;61.52;101013.16;10394443;28;20214;-74
2021/07/20 21:43:14;;;;;;;8.77;5.20;;;;;;;17.76;61.61;101012.84;10391193;28;20201;-75
2021/07/20 21:48:18;;;;;;;8.02;4.80;;;;;;;17.77;61.27;101021.84;10390888;28;20218;-75
2021/07/20 21:53:21;;;;;;;7.13;5.05;;;;;;;17.75;61.55;101023.88;10390721;28;20210;-74
2021/07/20 21:58:25;;;;;;;7.22;4.68;;;;;;;17.75;61.61;101021.16;10390427;28;20194;-75
2021/07/20 22:03:29;;;;;;;8.18;4.95;;;;;;;17.73;61.56;101034.03;10390639;28;20669;-75
2021/07/20 22:08:32;;;;;;;7.05;4.72;;;;;;;17.74;61.88;101041.16;10390186;28;20190;-75
2021/07/20 22:13:36;;;;;;;7.55;4.85;;;;;;;17.69;61.92;101033.50;10390033;28;20229;-75
2021/07/20 22:18:39;;;;;;;9.35;5.20;;;;;;;17.67;62.19;101039.06;10388668;28;20289;-75
2021/07/20 22:23:42;;;;;;;8.88;5.10;;;;;;;17.62;62.33;101041.41;10389415;28;20679;-75
2021/07/20 22:28:46;;;;;;;10.70;4.93;;;;;;;17.60;62.10;101042.56;10388192;28;20209;-75
2021/07/20 22:33:49;;;;;;;7.25;4.80;;;;;;;17.56;62.41;101043.91;10391656;28;20313;-75
2021/07/20 22:38:56;;;;;;;7.70;4.95;;;;;;;17.58;62.55;101052.72;10391044;28;20635;-76
2021/07/20 22:44:00;;;;;;;8.95;5.00;;;;;;;17.64;62.33;101052.13;10394824;28;20699;-74
2021/07/20 22:49:05;;;;;;;8.07;5.22;;;;;;;17.63;62.33;101050.41;10387735;28;20674;-75
2021/07/20 22:54:08;;;;;;;7.65;4.85;;;;;;;17.61;62.46;101053.28;10388175;28;20222;-75
2021/07/20 22:59:12;;;;;;;9.93;4.55;;;;;;;17.56;62.95;101052.88;10388400;28;20191;-75
2021/07/20 23:04:15;;;;;;;8.10;4.55;;;;;;;17.38;64.00;101049.28;10387960;28;20207;-74
2021/07/20 23:09:18;;;;;;;9.07;4.78;;;;;;;17.42;63.88;101042.56;10388612;28;20655;-75
2021/07/20 23:14:22;;;;;;;9.23;5.28;;;;;;;17.36;63.88;101045.88;10404410;28;20226;-75
2021/07/20 23:19:25;;;;;;;9.23;4.75;;;;;;;17.29;64.02;101044.78;10388855;28;20199;-75
2021/07/20 23:24:28;;;;;;;10.30;5.40;;;;;;;17.11;64.51;101045.53;10388095;28;20305;-75